Time;durP1;ratioP1;P1;durP2;ratioP2;P2;SDS_P1;SDS_P2;PMS_P1;PMS_P2;Temp;Humidity;BMP_temperature;BMP_pressure;BME280_temperature;BME280_humidity;BME280_pressure;Samples;Min_cycle;Max_cycle;Signal;HPM_P1;HPM_P2
2024/04/14 00:00:49;;;;;;;12.80;7.40;;;;;;;14.80;76.07;100751.77;106031;1257;99427;-79
2024/04/14 00:03:56;;;;;;;10.20;7.40;;;;;;;14.76;76.19;100743.73;105760;1260;99358;-81
2024/04/14 00:06:42;;;;;;;11.30;7.50;;;;;;;14.73;76.52;100740.22;106225;1258;99192;-80
2024/04/14 00:09:27;;;;;;;9.60;6.90;;;;;;;14.71;76.59;100736.08;105785;1260;102687;-80
2024/04/14 00:12:12;;;;;;;13.30;7.20;;;;;;;14.70;76.74;100732.27;105800;1259;99711;-79
2024/04/14 00:14:58;;;;;;;12.00;7.50;;;;;;;14.69;77.04;100727.28;105700;1257;99608;-80
2024/04/14 00:17:44;;;;;;;13.20;8.10;;;;;;;14.70;77.10;100724.91;106167;1259;99366;-79
2024/04/14 00:20:30;;;;;;;12.30;7.70;;;;;;;14.68;77.23;100719.57;106363;1259;99756;-80
2024/04/14 00:23:15;;;;;;;9.20;7.30;;;;;;;14.66;77.40;100721.81;105724;1259;102725;-80
2024/04/14 00:26:01;;;;;;;16.40;8.20;;;;;;;14.64;77.57;100718.83;105631;1257;100454;-79
2024/04/14 00:28:48;;;;;;;11.50;7.00;;;;;;;14.62;77.78;100718.96;105748;1256;100966;-80
2024/04/14 00:31:33;;;;;;;11.10;6.90;;;;;;;14.62;77.82;100719.87;106179;1257;99423;-80
2024/04/14 00:34:21;;;;;;;16.60;8.00;;;;;;;14.61;77.99;100712.03;106102;1259;99333;-79
2024/04/14 00:37:07;;;;;;;9.80;7.60;;;;;;;14.61;78.29;100710.66;106119;1255;102665;-79
2024/04/14 00:39:52;;;;;;;10.90;6.90;;;;;;;14.61;78.53;100703.52;105989;1257;99245;-81
2024/04/14 00:42:38;;;;;;;8.20;7.00;;;;;;;14.60;78.59;100697.85;106051;1260;99359;-80
2024/04/14 00:45:25;;;;;;;9.50;6.70;;;;;;;14.59;78.77;100690.59;106191;1257;100575;-80
2024/04/14 00:48:12;;;;;;;10.50;6.00;;;;;;;14.59;79.04;100682.48;105988;1259;99331;-80
2024/04/14 00:50:58;;;;;;;11.10;6.40;;;;;;;14.59;79.12;100686.12;105697;1257;103971;-80
2024/04/14 00:53:44;;;;;;;8.20;6.20;;;;;;;14.58;79.23;100684.77;105785;1259;99455;-79
2024/04/14 00:56:29;;;;;;;13.00;6.50;;;;;;;14.57;79.40;100680.27;105801;1259;99908;-79
2024/04/14 00:59:15;;;;;;;12.00;7.60;;;;;;;14.57;79.56;100668.79;105711;1257;99253;-79
2024/04/14 01:02:00;;;;;;;9.20;6.50;;;;;;;14.58;79.76;100667.25;106341;1256;99855;-80
2024/04/14 01:04:46;;;;;;;9.80;7.10;;;;;;;14.57;79.67;100667.95;106252;1256;102670;-81
2024/04/14 01:07:32;;;;;;;8.20;6.50;;;;;;;14.55;79.92;100666.71;106135;1255;99889;-79
2024/04/14 01:10:20;;;;;;;13.10;7.20;;;;;;;14.54;79.89;100666.91;106350;1256;99328;-80
2024/04/14 01:13:05;;;;;;;11.20;7.50;;;;;;;14.52;79.81;100662.66;106250;1259;99298;-79
2024/04/14 01:15:50;;;;;;;10.90;7.50;;;;;;;14.51;80.00;100664.85;105908;1257;100570;-79
2024/04/14 01:18:36;;;;;;;10.90;6.90;;;;;;;14.49;80.21;100666.68;105732;1259;102712;-79
2024/04/14 01:21:21;;;;;;;10.50;6.50;;;;;;;14.48;80.39;100660.91;105714;1259;100316;-79
2024/04/14 01:24:07;;;;;;;8.90;6.20;;;;;;;14.48;80.34;100657.84;105753;1257;99414;-80
2024/04/14 01:26:52;;;;;;;9.80;6.50;;;;;;;14.49;80.58;100656.84;106215;1256;99196;-79
2024/04/14 01:29:38;;;;;;;12.10;7.10;;;;;;;14.49;80.55;100656.23;106274;1256;99304;-80
2024/04/14 01:32:24;;;;;;;9.40;6.40;;;;;;;14.49;80.59;100651.83;106404;1256;102697;-80
2024/04/14 01:35:09;;;;;;;13.10;6.80;;;;;;;14.48;80.81;100641.84;106180;1257;99299;-80
2024/04/14 01:37:55;;;;;;;9.50;6.00;;;;;;;14.48;80.96;100639.15;106479;1257;99311;-80
2024/04/14 01:40:40;;;;;;;12.80;6.50;;;;;;;14.45;80.81;100632.36;105809;1259;99340;-79
2024/04/14 01:43:27;;;;;;;10.20;6.70;;;;;;;14.44;80.94;100633.57;105706;1257;99772;-81
2024/04/14 01:46:12;;;;;;;9.20;6.40;;;;;;;14.45;81.29;100628.84;105591;1261;137669;-79
2024/04/14 01:48:58;;;;;;;11.00;6.20;;;;;;;14.43;81.27;100630.17;105750;1257;99343;-81
2024/04/14 01:51:44;;;;;;;10.10;6.30;;;;;;;14.42;81.23;100625.65;106407;1257;99317;-82
2024/04/14 01:54:29;;;;;;;9.50;6.60;;;;;;;14.40;81.49;100616.33;106414;1257;99283;-80
2024/04/14 01:57:14;;;;;;;9.40;6.30;;;;;;;14.41;81.64;100614.78;106375;1256;99305;-81
2024/04/14 02:00:01;;;;;;;10.30;6.60;;;;;;;14.41;81.53;100611.17;106377;1256;102706;-80
2024/04/14 02:02:46;;;;;;;9.30;6.40;;;;;;;14.40;81.53;100602.56;106301;1256;100352;-81
2024/04/14 02:05:32;;;;;;;10.80;6.50;;;;;;;14.39;81.51;100599.08;106399;1259;99321;-82
2024/04/14 02:08:20;;;;;;;8.60;5.90;;;;;;;14.39;81.66;100591.16;106647;1256;99340;-80
2024/04/14 02:11:06;;;;;;;7.30;5.80;;;;;;;14.39;81.97;100589.79;106360;1256;99328;-79
2024/04/14 02:13:51;;;;;;;8.60;5.90;;;;;;;14.38;81.84;100588.73;106408;1259;103965;-79
2024/04/14 02:16:37;;;;;;;11.70;6.70;;;;;;;14.37;82.05;100582.29;105757;1256;99226;-80
2024/04/14 02:19:22;;;;;;;9.10;6.20;;;;;;;14.35;82.20;100577.25;105714;1259;99482;-80
2024/04/14 02:22:08;;;;;;;9.10;6.90;;;;;;;14.33;82.20;100576.53;105714;1258;99336;-81
2024/04/14 02:24:53;;;;;;;10.30;7.10;;;;;;;14.32;82.02;100570.57;105845;1256;99311;-79
2024/04/14 02:27:39;;;;;;;8.10;6.70;;;;;;;14.31;82.12;100569.83;105713;1257;103929;-79
2024/04/14 02:30:24;;;;;;;9.40;6.50;;;;;;;14.29;82.36;100559.76;105810;1257;99248;-79
2024/04/14 02:33:09;;;;;;;10.30;6.30;;;;;;;14.25;82.40;100552.52;105842;1259;99476;-79
2024/04/14 02:35:58;;;;;;;13.40;6.90;;;;;;;14.22;82.60;100550.72;105844;1257;99233;-80
2024/04/14 02:38:44;;;;;;;10.40;7.20;;;;;;;14.16;82.66;100548.04;105871;1255;99718;-80
2024/04/14 02:41:29;;;;;;;11.80;6.70;;;;;;;14.12;83.10;100546.52;106237;1256;102726;-80
2024/04/14 02:44:16;;;;;;;8.80;6.50;;;;;;;14.08;83.33;100545.23;106242;1258;99234;-81
2024/04/14 02:47:02;;;;;;;12.10;6.70;;;;;;;14.05;83.67;100543.09;106260;1260;99224;-80
2024/04/14 02:49:48;;;;;;;9.60;6.90;;;;;;;14.02;83.91;100535.73;105782;1259;99497;-80
2024/04/14 02:52:33;;;;;;;16.00;7.90;;;;;;;14.00;84.11;100534.41;106207;1256;99794;-83
2024/04/14 02:55:19;;;;;;;9.40;7.30;;;;;;;13.99;84.19;100531.64;106671;1256;102681;-80
2024/04/14 02:58:05;;;;;;;11.40;6.90;;;;;;;13.97;84.39;100527.40;106368;1256;100512;-81
2024/04/14 03:01:01;;;;;;;11.80;6.60;;;;;;;13.94;84.65;100522.02;106103;1256;99379;-80
2024/04/14 03:03:48;;;;;;;8.90;6.50;;;;;;;13.92;84.53;100517.06;106165;1255;99392;-81
2024/04/14 03:06:33;;;;;;;10.80;7.40;;;;;;;13.91;84.72;100513.98;106388;1255;100315;-81
2024/04/14 03:09:19;;;;;;;11.60;7.20;;;;;;;13.90;84.76;100508.95;105716;1257;103409;-79
2024/04/14 03:12:05;;;;;;;11.60;6.30;;;;;;;13.88;84.89;100500.00;105784;1256;100191;-80
2024/04/14 03:14:50;;;;;;;9.80;6.10;;;;;;;13.87;85.01;100490.60;105736;1258;99425;-81
2024/04/14 03:17:36;;;;;;;7.70;6.00;;;;;;;13.86;84.93;100485.17;105836;1259;99809;-81
2024/04/14 03:20:22;;;;;;;11.90;6.80;;;;;;;13.85;85.18;100484.80;105819;1256;100572;-81
2024/04/14 03:23:07;;;;;;;10.20;6.50;;;;;;;13.86;85.39;100479.75;106374;1259;103957;-80
2024/04/14 03:25:53;;;;;;;8.50;5.90;;;;;;;13.85;85.27;100472.96;106228;1257;100872;-80
2024/04/14 03:28:39;;;;;;;9.30;6.50;;;;;;;13.84;85.18;100475.77;106285;1257;99323;-80
2024/04/14 03:31:24;;;;;;;10.30;6.20;;;;;;;13.84;85.44;100470.77;106209;1260;97220;-80
2024/04/14 03:34:09;;;;;;;10.40;6.10;;;;;;;13.84;85.64;100469.56;106345;1256;99214;-80
2024/04/14 03:36:55;;;;;;;8.60;6.70;;;;;;;13.84;85.76;100470.85;106340;1260;103955;-80
2024/04/14 03:39:41;;;;;;;8.30;6.20;;;;;;;13.84;85.79;100466.30;106162;1261;99378;-81
2024/04/14 03:42:26;;;;;;;8.20;6.20;;;;;;;13.83;85.88;100458.66;106279;1256;99958;-80
2024/04/14 03:45:18;;;;;;;7.90;6.10;;;;;;;13.83;85.89;100452.58;106322;1256;99348;-81
2024/04/14 03:48:04;;;;;;;9.60;6.30;;;;;;;13.83;85.87;100447.94;106137;1256;99309;-80
2024/04/14 03:50:50;;;;;;;8.30;6.50;;;;;;;13.83;85.77;100442.98;106170;1256;102789;-81
2024/04/14 03:53:35;;;;;;;9.00;6.00;;;;;;;13.83;86.17;100431.66;106465;1259;99441;-81
2024/04/14 03:56:21;;;;;;;10.20;6.50;;;;;;;13.84;85.98;100425.83;106396;1256;99254;-81
2024/04/14 03:59:06;;;;;;;11.10;7.00;;;;;;;13.83;86.19;100420.89;106287;1256;99219;-81
2024/04/14 04:01:52;;;;;;;7.80;6.50;;;;;;;13.82;86.19;100416.09;106182;1256;101086;-82
2024/04/14 04:04:38;;;;;;;10.00;6.30;;;;;;;13.81;86.18;100409.42;106012;1264;104596;-81
2024/04/14 04:07:23;;;;;;;8.90;6.00;;;;;;;13.82;86.12;100404.16;106114;1256;100789;-81
2024/04/14 04:10:08;;;;;;;9.50;6.30;;;;;;;13.82;86.40;100401.59;106188;1256;99351;-80
2024/04/14 04:12:54;;;;;;;8.10;6.80;;;;;;;13.82;86.48;100402.67;105670;1260;99301;-80
2024/04/14 04:15:39;;;;;;;8.60;6.30;;;;;;;13.82;86.53;100396.16;105614;1261;99197;-80
2024/04/14 04:18:26;;;;;;;7.70;6.40;;;;;;;13.82;86.69;100397.08;105873;1256;102781;-80
2024/04/14 04:21:11;;;;;;;9.50;6.90;;;;;;;13.83;86.73;100395.92;105510;1256;99324;-80
2024/04/14 04:23:57;;;;;;;11.60;6.50;;;;;;;13.83;86.78;100391.08;105786;1256;99197;-80
2024/04/14 04:26:42;;;;;;;12.80;6.80;;;;;;;13.84;86.68;100387.46;105571;1257;99426;-79
2024/04/14 04:29:29;;;;;;;14.10;7.60;;;;;;;13.85;86.99;100386.26;105714;1255;99788;-80
2024/04/14 04:32:17;;;;;;;7.00;6.30;;;;;;;13.85;86.84;100385.35;106349;1255;102682;-79
2024/04/14 04:35:02;;;;;;;11.50;7.30;;;;;;;13.86;87.10;100384.52;106349;1257;100338;-80
2024/04/14 04:37:48;;;;;;;13.00;6.90;;;;;;;13.88;87.34;100383.21;106371;1257;99367;-80
2024/04/14 04:40:34;;;;;;;10.30;7.10;;;;;;;13.89;87.03;100379.03;106274;1255;99340;-81
2024/04/14 04:43:22;;;;;;;12.50;7.60;;;;;;;13.91;87.09;100375.30;106189;1256;99434;-79
2024/04/14 04:46:07;;;;;;;9.90;7.60;;;;;;;13.92;87.19;100374.67;106032;1261;102685;-80
2024/04/14 04:48:56;;;;;;;13.30;7.80;;;;;;;13.94;87.41;100373.05;106294;1259;100123;-80
2024/04/14 04:51:41;;;;;;;8.60;7.70;;;;;;;13.95;87.34;100371.39;106319;1256;99436;-80
2024/04/14 04:54:27;;;;;;;11.20;7.70;;;;;;;13.97;87.36;100374.03;106242;1256;99222;-80
2024/04/14 04:57:12;;;;;;;8.80;7.40;;;;;;;13.99;87.50;100375.02;106245;1256;99464;-80
2024/04/14 04:59:58;;;;;;;13.90;8.20;;;;;;;14.03;87.43;100372.79;106306;1259;103583;-79
2024/04/14 05:02:43;;;;;;;12.80;8.30;;;;;;;14.05;87.39;100362.02;105713;1259;99307;-80
2024/04/14 05:05:29;;;;;;;12.60;8.40;;;;;;;14.08;87.55;100361.34;106262;1255;99455;-80
2024/04/14 05:08:14;;;;;;;9.00;7.70;;;;;;;14.11;87.84;100358.22;106235;1271;99391;-81
2024/04/14 05:11:00;;;;;;;8.80;7.20;;;;;;;14.14;87.93;100352.02;106136;1257;99188;-80
2024/04/14 05:13:49;;;;;;;8.80;7.90;;;;;;;14.18;87.81;100352.17;106379;1257;102705;-80
2024/04/14 05:16:35;;;;;;;10.20;7.70;;;;;;;14.22;87.89;100344.15;106416;1256;99263;-81
2024/04/14 05:19:20;;;;;;;10.10;7.90;;;;;;;14.25;87.77;100344.25;106364;1259;99354;-80
2024/04/14 05:22:06;;;;;;;11.00;7.50;;;;;;;14.28;87.80;100344.33;106125;1259;99130;-80
2024/04/14 05:24:52;;;;;;;10.60;8.00;;;;;;;14.33;88.12;100342.91;106419;1256;99436;-80
2024/04/14 05:27:38;;;;;;;11.10;8.00;;;;;;;14.36;88.19;100339.63;106221;1259;103698;-80
2024/04/14 05:30:23;;;;;;;11.90;8.00;;;;;;;14.39;88.05;100341.41;105669;1257;100156;-80
2024/04/14 05:33:09;;;;;;;14.40;8.90;;;;;;;14.44;88.10;100336.48;106328;1257;99308;-80
2024/04/14 05:35:56;;;;;;;10.10;7.80;;;;;;;14.47;88.23;100333.57;106355;1257;99305;-81
2024/04/14 05:38:41;;;;;;;11.40;7.80;;;;;;;14.51;88.32;100333.63;107512;1259;99346;-81
2024/04/14 05:41:26;;;;;;;10.90;7.90;;;;;;;14.57;88.31;100329.23;106345;1260;103457;-80
2024/04/14 05:44:12;;;;;;;12.20;8.40;;;;;;;14.62;88.39;100323.33;106293;1257;100540;-81
2024/04/14 05:46:57;;;;;;;9.60;7.30;;;;;;;14.70;88.34;100315.15;106138;1257;100859;-81
2024/04/14 05:49:42;;;;;;;11.90;7.10;;;;;;;14.77;88.58;100312.64;106151;1259;99413;-81
2024/04/14 05:52:28;;;;;;;10.10;8.40;;;;;;;14.86;88.50;100304.88;106310;1256;99251;-80
2024/04/14 05:55:14;;;;;;;8.50;7.60;;;;;;;14.91;88.52;100298.32;106216;1259;102710;-79
2024/04/14 05:57:59;;;;;;;14.40;8.00;;;;;;;14.97;88.16;100301.62;105699;1262;99812;-80
2024/04/14 06:00:45;;;;;;;12.80;7.80;;;;;;;15.04;88.02;100299.52;105665;1259;99308;-79
2024/04/14 06:03:30;;;;;;;10.90;7.50;;;;;;;15.11;88.25;100298.62;106501;1256;99339;-81
2024/04/14 06:06:17;;;;;;;9.30;7.60;;;;;;;15.19;88.35;100296.17;106432;1259;99775;-80
2024/04/14 06:09:04;;;;;;;11.90;8.50;;;;;;;15.28;88.27;100300.48;106318;1259;104081;-82
2024/04/14 06:11:50;;;;;;;11.40;8.40;;;;;;;15.37;88.36;100305.67;106212;1259;100674;-84
2024/04/14 06:14:36;;;;;;;10.10;7.70;;;;;;;15.48;87.93;100303.46;105837;1257;99382;-84
2024/04/14 06:17:21;;;;;;;12.60;8.80;;;;;;;15.59;87.95;100303.26;106187;1262;99234;-82
2024/04/14 06:20:07;;;;;;;12.70;7.00;;;;;;;15.70;87.61;100299.08;106031;1259;99808;-84
2024/04/14 06:22:53;;;;;;;12.50;8.50;;;;;;;15.80;87.30;100296.95;106231;1259;103976;-83
2024/04/14 06:25:38;;;;;;;9.70;8.00;;;;;;;15.91;87.30;100300.34;106083;1256;100046;-79
2024/04/14 06:28:24;;;;;;;13.40;7.30;;;;;;;16.02;86.93;100297.61;105697;1257;99311;-79
2024/04/14 06:31:09;;;;;;;10.90;7.60;;;;;;;16.12;86.54;100292.76;106022;1259;99304;-80
2024/04/14 06:33:54;;;;;;;11.10;7.20;;;;;;;16.23;86.28;100282.52;105860;1257;99231;-79
2024/04/14 06:36:40;;;;;;;12.80;6.80;;;;;;;16.34;86.09;100277.11;105913;1257;104435;-83
2024/04/14 06:39:26;;;;;;;10.10;6.80;;;;;;;16.44;85.52;100272.29;105898;1256;100851;-81
2024/04/14 06:42:13;;;;;;;13.20;9.70;;;;;;;16.52;85.13;100270.50;106056;1261;99413;-83
2024/04/14 06:44:58;;;;;;;30.60;18.50;;;;;;;16.60;84.70;100266.05;106041;1254;99321;-82
2024/04/14 06:47:43;;;;;;;14.30;8.60;;;;;;;16.69;84.69;100268.44;106214;1257;99762;-83
2024/04/14 06:50:28;;;;;;;8.70;6.30;;;;;;;16.77;84.65;100263.21;106112;1256;102872;-80
2024/04/14 06:53:14;;;;;;;12.20;6.60;;;;;;;16.85;84.30;100256.54;106085;1257;99940;-80
2024/04/14 06:56:01;;;;;;;11.10;6.00;;;;;;;16.93;84.42;100256.98;106047;1258;99429;-82
2024/04/14 06:58:46;;;;;;;7.80;6.20;;;;;;;17.00;83.75;100258.60;106037;1259;99303;-82
2024/04/14 07:01:32;;;;;;;8.40;6.10;;;;;;;17.06;83.25;100255.23;105965;1257;99834;-83
2024/04/14 07:04:18;;;;;;;7.10;5.80;;;;;;;17.13;83.03;100247.20;106054;1259;104006;-83
2024/04/14 07:07:04;;;;;;;8.50;5.80;;;;;;;17.20;82.74;100249.68;106122;1257;101467;-84
2024/04/14 07:09:49;;;;;;;9.90;5.70;;;;;;;17.27;82.91;100246.80;106507;1257;99985;-85
2024/04/14 07:12:35;;;;;;;10.30;6.60;;;;;;;17.33;82.01;100247.79;106200;1262;99381;-85
2024/04/14 07:15:21;;;;;;;7.30;5.70;;;;;;;17.38;82.14;100243.30;106249;1257;99296;-85
2024/04/14 07:18:07;;;;;;;8.80;5.80;;;;;;;17.46;82.41;100240.77;106125;1257;104271;-84
2024/04/14 07:20:55;;;;;;;6.50;4.80;;;;;;;17.53;82.31;100242.23;106034;1257;101357;-82
2024/04/14 07:23:41;;;;;;;7.10;4.60;;;;;;;17.59;81.38;100245.64;106258;1259;100929;-87
2024/04/14 07:26:27;;;;;;;7.60;5.00;;;;;;;17.65;80.65;100244.96;105952;1256;99302;-84
2024/04/14 07:29:14;;;;;;;11.40;5.20;;;;;;;17.73;80.68;100241.69;106089;1257;99734;-83
2024/04/14 07:32:00;;;;;;;8.30;5.20;;;;;;;17.79;80.58;100239.23;105943;1259;104261;-84
2024/04/14 07:34:46;;;;;;;8.90;6.70;;;;;;;17.84;80.33;100235.20;106321;1257;100395;-84
2024/04/14 07:37:33;;;;;;;12.20;7.70;;;;;;;17.87;79.84;100233.52;106134;1262;99953;-84
2024/04/14 07:40:18;;;;;;;11.10;8.80;;;;;;;17.88;79.28;100240.09;105838;1262;99432;-84
2024/04/14 07:43:07;;;;;;;10.30;6.70;;;;;;;17.90;79.27;100247.81;106154;1262;99280;-86
2024/04/14 07:45:52;;;;;;;9.20;6.90;;;;;;;17.90;78.71;100238.98;106045;1259;104939;-83
2024/04/14 07:48:38;;;;;;;10.00;6.90;;;;;;;17.94;78.78;100234.50;106117;1256;101362;-85
2024/04/14 07:51:24;;;;;;;9.80;5.70;;;;;;;18.03;78.89;100230.45;105888;1262;99242;-85
2024/04/14 07:54:10;;;;;;;9.20;6.10;;;;;;;18.06;78.42;100226.77;106217;1257;99304;-86
2024/04/14 07:56:56;;;;;;;10.10;5.40;;;;;;;18.08;78.28;100224.84;106286;1262;99772;-85
2024/04/14 07:59:41;;;;;;;7.70;5.70;;;;;;;18.08;78.21;100222.41;106461;1256;104106;-80
2024/04/14 08:02:27;;;;;;;8.30;5.50;;;;;;;18.10;77.64;100220.87;106180;1256;99314;-79
2024/04/14 08:05:13;;;;;;;8.20;6.40;;;;;;;18.16;77.74;100222.89;105582;1259;100004;-80
2024/04/14 08:07:58;;;;;;;10.50;5.50;;;;;;;18.22;77.68;100221.36;105463;1257;100063;-80
2024/04/14 08:10:44;;;;;;;12.20;5.50;;;;;;;18.32;77.99;100225.15;106640;1257;99333;-80
2024/04/14 08:13:29;;;;;;;7.10;5.80;;;;;;;18.44;77.57;100224.28;106340;1255;104028;-80
2024/04/14 08:16:15;;;;;;;7.00;5.60;;;;;;;18.57;77.30;100232.30;106254;1259;99597;-80
2024/04/14 08:19:01;;;;;;;7.80;5.50;;;;;;;18.61;76.83;100225.48;106391;1256;99331;-79
2024/04/14 08:21:46;;;;;;;8.80;6.30;;;;;;;18.60;76.70;100225.84;106141;1256;99580;-80
2024/04/14 08:24:32;;;;;;;8.60;5.60;;;;;;;18.58;76.67;100227.05;106301;1260;99833;-81
2024/04/14 08:27:18;;;;;;;9.20;5.70;;;;;;;18.58;76.95;100227.56;106361;1257;102674;-81
2024/04/14 08:30:03;;;;;;;8.60;6.40;;;;;;;18.58;76.58;100222.46;106363;1259;99721;-80
2024/04/14 08:32:49;;;;;;;12.40;5.90;;;;;;;18.62;76.78;100215.02;106440;1256;99418;-80
2024/04/14 08:35:34;;;;;;;9.70;6.40;;;;;;;18.72;77.47;100214.40;106349;1257;99308;-80
2024/04/14 08:38:20;;;;;;;10.50;7.00;;;;;;;18.82;77.49;100218.10;106461;1257;99760;-86
2024/04/14 08:41:05;;;;;;;9.80;7.60;;;;;;;18.86;76.67;100236.05;106112;1259;103378;-85
2024/04/14 08:43:57;;;;;;;12.90;6.70;;;;;;;18.79;76.18;100234.27;106055;1256;99929;-85
2024/04/14 08:46:44;;;;;;;9.00;6.90;;;;;;;18.78;76.30;100229.15;106179;1259;99881;-86
2024/04/14 08:49:30;;;;;;;11.00;6.70;;;;;;;18.80;76.45;100235.05;106410;1262;97363;-87
2024/04/14 08:52:17;;;;;;;11.90;6.10;;;;;;;18.79;76.33;100238.23;106223;1257;99359;-85
2024/04/14 08:55:04;;;;;;;11.60;6.30;;;;;;;18.75;76.29;100231.13;106426;1259;104383;-86
2024/04/14 08:57:49;;;;;;;11.30;6.00;;;;;;;18.70;76.41;100229.31;106502;1259;99853;-79
2024/04/14 09:00:37;;;;;;;10.90;5.90;;;;;;;18.74;77.19;100224.86;105590;1259;100177;-85
2024/04/14 09:03:22;;;;;;;9.00;6.40;;;;;;;18.87;77.23;100223.76;106658;1257;99375;-89
2024/04/14 09:06:11;;;;;;;9.40;6.40;;;;;;;19.00;77.39;100222.86;106450;1260;99761;-79
2024/04/14 09:08:56;;;;;;;17.80;7.00;;;;;;;19.12;76.86;100230.39;105473;1257;102701;-80
2024/04/14 09:11:56;;;;;;;10.30;7.00;;;;;;;19.22;77.00;100224.30;105650;1257;99227;-80
2024/04/14 09:14:47;;;;;;;10.00;6.30;;;;;;;19.33;76.56;100222.15;105483;1260;99321;-79
2024/04/14 09:17:33;;;;;;;8.60;7.00;;;;;;;19.45;76.35;100229.23;105462;1262;99407;-78
2024/04/14 09:20:18;;;;;;;10.50;6.60;;;;;;;19.55;75.94;100228.52;105585;1257;99325;-80
2024/04/14 09:23:04;;;;;;;10.90;6.50;;;;;;;19.63;76.12;100232.33;105495;1257;102683;-79
2024/04/14 09:25:50;;;;;;;8.40;6.00;;;;;;;19.74;76.35;100233.09;105458;1260;99312;-78
2024/04/14 09:28:36;;;;;;;12.80;5.90;;;;;;;19.83;75.88;100229.39;105525;1257;100573;-78
2024/04/14 09:31:23;;;;;;;9.80;6.00;;;;;;;19.88;75.25;100231.35;105353;1257;99802;-80
2024/04/14 09:34:09;;;;;;;11.40;5.60;;;;;;;19.92;74.91;100235.20;105444;1257;99298;-79
2024/04/14 09:36:55;;;;;;;12.30;5.90;;;;;;;19.92;74.05;100236.66;105447;1259;102562;-85
2024/04/14 09:39:52;;;;;;;10.50;5.20;;;;;;;19.91;73.76;100233.83;106692;1257;108803;-94
2024/04/14 09:42:46;;;;;;;9.80;5.30;;;;;;;19.88;74.12;100235.97;106733;1259;99360;-89
2024/04/14 09:45:32;;;;;;;;;;;;;;;19.85;74.01;100236.05;106236;1267;99339;-89
2024/04/14 09:48:18;;;;;;;10.30;5.20;;;;;;;19.79;74.03;100237.34;106477;1265;99441;-83
2024/04/14 09:51:04;;;;;;;11.70;5.50;;;;;;;19.75;74.10;100238.64;105845;1259;102728;-84
2024/04/14 09:53:52;;;;;;;10.60;6.10;;;;;;;19.67;73.63;100244.21;105694;1259;99422;-82
2024/04/14 09:56:37;;;;;;;9.80;5.60;;;;;;;19.59;73.75;100244.61;105964;1262;99422;-82
2024/04/14 09:59:22;;;;;;;8.60;5.80;;;;;;;19.54;74.15;100242.05;106061;1262;99440;-83
2024/04/14 10:02:15;;;;;;;16.80;9.40;;;;;;;19.52;73.96;100248.54;105878;1265;99367;-83
2024/04/14 10:05:02;;;;;;;9.80;5.90;;;;;;;19.53;74.17;100244.20;105826;1260;103947;-85
2024/04/14 10:08:09;;;;;;;10.30;5.50;;;;;;;19.60;74.40;100241.26;106542;1264;99353;-93
2024/04/14 10:11:03;;;;;;;15.40;5.40;;;;;;;19.74;75.14;100242.88;106103;1264;99383;-86
2024/04/14 10:13:50;;;;;;;10.80;5.60;;;;;;;19.93;75.13;100239.55;105820;1264;99233;-87
2024/04/14 10:16:36;;;;;;;7.70;5.30;;;;;;;20.12;74.61;100245.66;105968;1259;99437;-82
2024/04/14 10:19:22;;;;;;;9.60;4.80;;;;;;;20.28;73.39;100247.04;106019;1259;104059;-88
2024/04/14 10:22:08;;;;;;;7.80;5.20;;;;;;;20.33;70.80;100253.45;106073;1266;101315;-83
2024/04/14 10:24:55;;;;;;;8.30;4.70;;;;;;;20.38;70.99;100245.94;105966;1258;99643;-84
2024/04/14 10:27:41;;;;;;;7.90;4.30;;;;;;;20.43;70.59;100238.52;106043;1259;99128;-85
2024/04/14 10:30:27;;;;;;;10.00;4.50;;;;;;;20.48;69.51;100238.98;105856;1266;99324;-83
2024/04/14 10:33:22;;;;;;;6.10;3.80;;;;;;;20.50;68.89;100242.44;105758;1265;103405;-85
2024/04/14 10:36:09;;;;;;;5.30;3.70;;;;;;;20.53;68.03;100251.07;105985;1259;100699;-79
2024/04/14 10:38:58;;;;;;;10.50;3.50;;;;;;;20.58;66.41;100251.91;105281;1258;99220;-82
2024/04/14 10:41:44;;;;;;;8.80;4.70;;;;;;;20.54;65.47;100246.88;105818;1259;99252;-83
2024/04/14 10:44:30;;;;;;;5.40;3.40;;;;;;;20.46;63.94;100242.95;105699;1259;99243;-85
2024/04/14 10:47:17;;;;;;;10.00;3.80;;;;;;;20.34;63.28;100250.15;105880;1266;104981;-83
2024/04/14 10:50:03;;;;;;;6.70;2.90;;;;;;;20.26;63.35;100243.43;106542;1257;99247;-86
2024/04/14 10:52:49;;;;;;;9.80;2.90;;;;;;;20.21;63.05;100247.35;108028;1259;99238;-85
2024/04/14 10:55:35;;;;;;;7.10;3.10;;;;;;;20.18;62.96;100245.18;107762;1260;99134;-86
2024/04/14 10:58:21;;;;;;;5.90;2.90;;;;;;;20.15;62.87;100255.59;106895;1259;99757;-83
2024/04/14 11:01:07;;;;;;;7.70;2.70;;;;;;;20.10;62.67;100253.68;106874;1259;103825;-84
2024/04/14 11:03:54;;;;;;;7.10;2.00;;;;;;;20.05;62.24;100248.73;106785;1259;100433;-85
2024/04/14 11:06:40;;;;;;;8.40;1.80;;;;;;;19.98;61.53;100253.19;107163;1259;99094;-85
2024/04/14 11:09:28;;;;;;;3.40;1.60;;;;;;;19.94;60.28;100255.92;106415;1259;99257;-89
2024/04/14 11:12:15;;;;;;;7.20;1.80;;;;;;;19.93;59.71;100257.92;106625;1259;100998;-87
2024/04/14 11:15:03;;;;;;;5.00;2.10;;;;;;;19.94;59.88;100257.61;106223;1260;104024;-86
2024/04/14 11:17:48;;;;;;;4.50;2.30;;;;;;;19.96;59.29;100262.75;106185;1259;100373;-88
2024/04/14 11:20:35;;;;;;;5.00;1.70;;;;;;;19.95;58.87;100271.22;106323;1265;99447;-79
2024/04/14 11:23:24;;;;;;;8.10;2.10;;;;;;;19.94;58.85;100266.98;105758;1263;99232;-79
2024/04/14 11:26:09;;;;;;;7.60;1.80;;;;;;;19.95;58.83;100270.57;106154;1265;99327;-80
2024/04/14 11:28:55;;;;;;;5.40;1.50;;;;;;;19.95;58.12;100271.88;106610;1259;103957;-81
2024/04/14 11:31:40;;;;;;;5.70;1.80;;;;;;;19.90;57.07;100273.66;106338;1265;100322;-79
2024/04/14 11:34:27;;;;;;;9.10;2.20;;;;;;;19.82;57.31;100268.20;106397;1259;99439;-80
2024/04/14 11:37:13;;;;;;;6.30;1.70;;;;;;;19.81;57.38;100267.84;106690;1263;99223;-78
2024/04/14 11:39:59;;;;;;;6.70;1.70;;;;;;;19.83;57.51;100268.79;105685;1264;99325;-78
2024/04/14 11:42:45;;;;;;;7.30;1.80;;;;;;;19.87;57.96;100270.48;105723;1259;103822;-79
2024/04/14 11:45:30;;;;;;;6.70;1.80;;;;;;;19.91;58.69;100268.58;105519;1264;99839;-79
2024/04/14 11:48:17;;;;;;;8.30;2.30;;;;;;;20.01;58.95;100273.61;105595;1259;99308;-78
2024/04/14 11:51:03;;;;;;;8.00;2.50;;;;;;;20.08;59.01;100270.21;105521;1261;99336;-78
2024/04/14 11:53:48;;;;;;;11.80;2.10;;;;;;;20.15;59.64;100275.60;105413;1259;99754;-78
2024/04/14 11:56:33;;;;;;;8.90;2.50;;;;;;;20.19;59.95;100284.96;105502;1263;104066;-80
2024/04/14 11:59:20;;;;;;;8.70;3.10;;;;;;;20.07;59.70;100297.49;105496;1265;100845;-79
2024/04/14 12:02:06;;;;;;;8.80;3.50;;;;;;;19.86;59.97;100300.63;105459;1259;99444;-79
2024/04/14 12:04:53;;;;;;;6.80;3.30;;;;;;;19.70;61.11;100309.46;105367;1259;99136;-79
2024/04/14 12:07:38;;;;;;;6.70;2.70;;;;;;;19.61;61.50;100309.85;105394;1265;99836;-79
2024/04/14 12:10:24;;;;;;;8.60;2.50;;;;;;;19.54;61.17;100303.83;105482;1259;102705;-78
2024/04/14 12:13:10;;;;;;;6.70;2.20;;;;;;;19.48;61.42;100308.79;105217;1265;101036;-78
2024/04/14 12:15:56;;;;;;;6.40;2.40;;;;;;;19.44;61.17;100310.55;105223;1265;99375;-79
2024/04/14 12:18:42;;;;;;;6.30;2.10;;;;;;;19.41;60.73;100310.02;105432;1259;99247;-79
2024/04/14 12:21:28;;;;;;;7.20;2.10;;;;;;;19.40;60.64;100308.27;105490;1263;99821;-79
2024/04/14 12:24:13;;;;;;;10.10;2.20;;;;;;;19.40;59.99;100305.48;105542;1263;102690;-79
2024/04/14 12:26:59;;;;;;;7.30;2.00;;;;;;;19.39;59.58;100307.38;105553;1259;100675;-78
2024/04/14 12:29:47;;;;;;;6.10;2.10;;;;;;;19.38;59.10;100309.92;105496;1259;99435;-79
2024/04/14 12:32:32;;;;;;;9.10;2.20;;;;;;;19.38;59.42;100307.52;105462;1260;100020;-79
2024/04/14 12:35:18;;;;;;;13.50;2.00;;;;;;;19.39;59.24;100308.52;105385;1259;99395;-79
2024/04/14 12:38:04;;;;;;;12.10;2.80;;;;;;;19.41;59.37;100307.58;105382;1259;102759;-78